Time;durP1;ratioP1;P1;durP2;ratioP2;P2;SDS_P1;SDS_P2;PMS_P1;PMS_P2;Temp;Humidity;BMP_temperature;BMP_pressure;BME280_temperature;BME280_humidity;BME280_pressure;Samples;Min_cycle;Max_cycle;Signal;HPM_P1;HPM_P2
2023/08/17 04:04:51;;;;;;;;;21.33;19.00;;;;;;;;5894353;22;46159;-71
2023/08/17 04:07:23;;;;;;;;;21.67;20.33;;;;;;;;5019993;28;45506;-73
2023/08/17 04:09:48;;;;;;;;;21.00;18.67;;;;;;;;5020812;28;45455;-71
2023/08/17 04:12:14;;;;;;;;;22.67;21.33;;;;;;;;5018206;28;45133;-72
2023/08/17 04:14:39;;;;;;;;;25.33;22.33;;;;;;;;5020451;28;46632;-72
2023/08/17 04:17:04;;;;;;;;;23.00;20.00;;;;;;;;5018389;28;45394;-72
2023/08/17 04:19:29;;;;;;;;;26.00;25.00;;;;;;;;5020472;28;45600;-71
2023/08/17 04:21:54;;;;;;;;;26.67;23.00;;;;;;;;5019961;28;45304;-72
2023/08/17 04:24:20;;;;;;;;;22.33;21.33;;;;;;;;5017813;28;46437;-72
2023/08/17 04:26:45;;;;;;;;;28.67;24.00;;;;;;;;5018086;28;45374;-73
2023/08/17 04:29:10;;;;;;;;;29.67;25.00;;;;;;;;5017969;28;45270;-73
2023/08/17 04:31:35;;;;;;;;;23.00;21.67;;;;;;;;5020775;28;45332;-72
2023/08/17 04:34:01;;;;;;;;;28.67;26.67;;;;;;;;5020883;28;45674;-72
2023/08/17 04:36:26;;;;;;;;;25.33;23.33;;;;;;;;5020948;28;45346;-72
2023/08/17 04:38:51;;;;;;;;;27.00;26.67;;;;;;;;5020882;28;45593;-73
2023/08/17 04:41:16;;;;;;;;;26.00;24.67;;;;;;;;5020882;28;45367;-73
2023/08/17 04:43:42;;;;;;;;;21.67;21.67;;;;;;;;5020639;28;45563;-73
2023/08/17 04:46:08;;;;;;;;;28.33;26.67;;;;;;;;5021007;28;45326;-73
2023/08/17 04:48:33;;;;;;;;;27.00;25.67;;;;;;;;5019564;28;45395;-73
2023/08/17 04:50:58;;;;;;;;;25.67;24.67;;;;;;;;5020584;28;45300;-72
2023/08/17 04:53:23;;;;;;;;;27.00;24.67;;;;;;;;5020729;28;45631;-73
2023/08/17 04:55:48;;;;;;;;;26.00;25.33;;;;;;;;5021114;28;45450;-73
2023/08/17 04:58:14;;;;;;;;;29.00;27.33;;;;;;;;5020914;28;45273;-72
2023/08/17 05:00:39;;;;;;;;;31.67;28.67;;;;;;;;5020707;28;45241;-73
2023/08/17 05:03:04;;;;;;;;;27.33;27.33;;;;;;;;5020522;28;45696;-73
2023/08/17 05:05:29;;;;;;;;;30.33;29.33;;;;;;;;5020380;28;45466;-73
2023/08/17 05:07:54;;;;;;;;;27.33;26.33;;;;;;;;5020568;28;45390;-73
2023/08/17 05:10:20;;;;;;;;;31.00;25.67;;;;;;;;5020331;28;45439;-72
2023/08/17 05:12:46;;;;;;;;;24.33;24.33;;;;;;;;5026783;28;46522;-74
2023/08/17 05:15:11;;;;;;;;;29.00;26.33;;;;;;;;5031345;28;45272;-74
2023/08/17 05:17:36;;;;;;;;;33.67;27.33;;;;;;;;5026880;28;45216;-74
2023/08/17 05:20:02;;;;;;;;;29.67;27.67;;;;;;;;5029955;28;45500;-74
2023/08/17 05:22:28;;;;;;;;;28.67;25.33;;;;;;;;5021238;28;46544;-74
2023/08/17 05:24:53;;;;;;;;;34.00;27.33;;;;;;;;5019777;28;45153;-73
2023/08/17 05:27:18;;;;;;;;;23.33;22.33;;;;;;;;5020814;28;45324;-72
2023/08/17 05:29:43;;;;;;;;;32.67;27.67;;;;;;;;5019381;28;46296;-71
2023/08/17 05:32:08;;;;;;;;;32.67;30.00;;;;;;;;5019744;28;46430;-72
2023/08/17 05:34:34;;;;;;;;;33.33;30.33;;;;;;;;5018194;28;45379;-71
2023/08/17 05:36:59;;;;;;;;;29.33;28.33;;;;;;;;5019676;28;45232;-72
2023/08/17 05:39:24;;;;;;;;;31.33;29.67;;;;;;;;5018305;28;46625;-73
2023/08/17 05:41:49;;;;;;;;;31.33;29.67;;;;;;;;5018364;28;46717;-73
2023/08/17 05:44:15;;;;;;;;;32.67;31.67;;;;;;;;5020031;28;45346;-72
2023/08/17 05:46:40;;;;;;;;;37.33;31.67;;;;;;;;5019637;28;45420;-71
2023/08/17 05:49:05;;;;;;;;;36.67;30.67;;;;;;;;5020009;28;45449;-71
2023/08/17 05:51:31;;;;;;;;;35.00;29.67;;;;;;;;5019311;28;46369;-71
2023/08/17 05:53:56;;;;;;;;;34.00;30.33;;;;;;;;5018638;28;45314;-71
2023/08/17 05:56:21;;;;;;;;;32.50;29.50;;;;;;;;5019876;28;45398;-71
2023/08/17 05:58:47;;;;;;;;;33.00;30.00;;;;;;;;5022301;28;45454;-71
2023/08/17 06:01:13;;;;;;;;;29.67;28.67;;;;;;;;5024253;28;45556;-71
2023/08/17 06:03:38;;;;;;;;;31.00;28.33;;;;;;;;5019686;28;45304;-71
2023/08/17 06:06:05;;;;;;;;;30.00;26.67;;;;;;;;5019474;28;45249;-71
2023/08/17 06:08:30;;;;;;;;;29.33;26.33;;;;;;;;5019473;28;45609;-71
2023/08/17 06:10:56;;;;;;;;;28.00;26.33;;;;;;;;5019264;28;45964;-71
2023/08/17 06:13:21;;;;;;;;;33.00;29.67;;;;;;;;5019450;28;45426;-71
2023/08/17 06:15:46;;;;;;;;;34.67;29.67;;;;;;;;5015302;28;45811;-71
2023/08/17 06:18:12;;;;;;;;;34.33;31.67;;;;;;;;5019090;28;45457;-72
2023/08/17 06:20:37;;;;;;;;;36.67;33.00;;;;;;;;5019003;28;46203;-72
2023/08/17 06:23:02;;;;;;;;;36.33;30.67;;;;;;;;5018730;28;44955;-73
2023/08/17 06:25:27;;;;;;;;;34.00;29.00;;;;;;;;5018940;28;45454;-72
2023/08/17 06:27:52;;;;;;;;;36.33;31.33;;;;;;;;5018883;28;45339;-72
2023/08/17 06:30:18;;;;;;;;;37.00;31.67;;;;;;;;5019319;28;45374;-73
2023/08/17 06:32:43;;;;;;;;;36.00;31.67;;;;;;;;5019228;28;45209;-73
2023/08/17 06:35:09;;;;;;;;;31.00;30.00;;;;;;;;5018121;28;45260;-73
2023/08/17 06:37:34;;;;;;;;;35.67;32.00;;;;;;;;5017336;28;45879;-72
2023/08/17 06:39:59;;;;;;;;;34.33;29.00;;;;;;;;5018661;28;45393;-73
2023/08/17 06:42:24;;;;;;;;;38.33;32.67;;;;;;;;5014751;28;45483;-72
2023/08/17 06:44:49;;;;;;;;;41.00;31.33;;;;;;;;5017577;28;45426;-73
2023/08/17 06:47:15;;;;;;;;;38.00;31.67;;;;;;;;5017994;28;45502;-72
2023/08/17 06:49:40;;;;;;;;;35.00;30.67;;;;;;;;5017995;28;45254;-72
2023/08/17 06:52:05;;;;;;;;;34.67;30.00;;;;;;;;5018787;28;45569;-72
2023/08/17 06:54:32;;;;;;;;;35.33;32.33;;;;;;;;5017962;28;45414;-72
2023/08/17 06:56:57;;;;;;;;;34.33;30.67;;;;;;;;5017951;28;45482;-72
2023/08/17 06:59:22;;;;;;;;;33.33;31.00;;;;;;;;5018072;28;45392;-73
2023/08/17 07:01:47;;;;;;;;;39.67;32.00;;;;;;;;5018408;28;45387;-72
2023/08/17 07:04:13;;;;;;;;;31.67;29.67;;;;;;;;5018749;28;45304;-73
2023/08/17 07:06:38;;;;;;;;;32.67;30.00;;;;;;;;5017359;28;45456;-72
2023/08/17 07:09:04;;;;;;;;;38.67;29.67;;;;;;;;5018466;28;45996;-73
2023/08/17 07:11:30;;;;;;;;;33.67;31.67;;;;;;;;5018598;28;45391;-72
2023/08/17 07:13:55;;;;;;;;;36.67;31.00;;;;;;;;5018762;28;45674;-72
2023/08/17 07:16:20;;;;;;;;;32.67;29.00;;;;;;;;5018588;28;45298;-72
2023/08/17 07:18:45;;;;;;;;;33.00;28.67;;;;;;;;5017099;28;47130;-72
2023/08/17 07:21:10;;;;;;;;;33.33;28.67;;;;;;;;5018432;28;45375;-73
2023/08/17 07:23:36;;;;;;;;;37.33;30.67;;;;;;;;5017267;28;45287;-72
2023/08/17 07:26:01;;;;;;;;;30.33;30.00;;;;;;;;5018620;28;45356;-73
2023/08/17 07:28:26;;;;;;;;;31.33;27.67;;;;;;;;5018456;28;45524;-73
2023/08/17 07:30:51;;;;;;;;;35.00;31.00;;;;;;;;5018288;28;45359;-73
2023/08/17 07:33:16;;;;;;;;;28.33;27.33;;;;;;;;5018531;28;45381;-74
2023/08/17 07:35:42;;;;;;;;;33.33;28.67;;;;;;;;5019729;28;45205;-73
2023/08/17 07:38:07;;;;;;;;;30.67;27.67;;;;;;;;5021575;28;46043;-73
2023/08/17 07:40:32;;;;;;;;;35.00;29.00;;;;;;;;5020283;28;45306;-73
2023/08/17 07:42:57;;;;;;;;;29.33;26.33;;;;;;;;5020250;28;45588;-73
2023/08/17 07:45:23;;;;;;;;;30.67;27.33;;;;;;;;5021928;28;45407;-73
2023/08/17 07:47:48;;;;;;;;;27.67;26.33;;;;;;;;5021391;28;46358;-71
2023/08/17 07:50:13;;;;;;;;;24.00;23.00;;;;;;;;5021262;28;45216;-70
2023/08/17 07:52:38;;;;;;;;;30.33;29.00;;;;;;;;5021627;28;45377;-69
2023/08/17 07:55:05;;;;;;;;;31.67;30.00;;;;;;;;5019947;28;46420;-71
2023/08/17 07:57:30;;;;;;;;;27.67;24.67;;;;;;;;5019479;28;46546;-71
2023/08/17 07:59:55;;;;;;;;;26.67;26.67;;;;;;;;5019866;28;45285;-72
2023/08/17 08:02:20;;;;;;;;;23.67;20.33;;;;;;;;5021302;28;46250;-72
2023/08/17 08:04:45;;;;;;;;;33.67;29.00;;;;;;;;5021090;28;45378;-72
2023/08/17 08:07:11;;;;;;;;;33.67;28.00;;;;;;;;5020948;28;46384;-71
2023/08/17 08:09:36;;;;;;;;;30.00;28.33;;;;;;;;5021380;28;45331;-72
2023/08/17 08:12:01;;;;;;;;;33.00;30.33;;;;;;;;5021356;28;45561;-72
2023/08/17 08:14:27;;;;;;;;;30.33;28.67;;;;;;;;5021207;28;45458;-71
2023/08/17 08:16:52;;;;;;;;;31.33;27.33;;;;;;;;5019422;28;47109;-72
2023/08/17 08:19:17;;;;;;;;;29.67;26.33;;;;;;;;5021448;28;45396;-72
2023/08/17 08:21:42;;;;;;;;;27.00;26.00;;;;;;;;5019456;28;45427;-72
2023/08/17 08:24:07;;;;;;;;;32.33;30.00;;;;;;;;5019766;28;45527;-72
2023/08/17 08:26:33;;;;;;;;;28.75;23.25;;;;;;;;5019456;28;47002;-72
2023/08/17 08:28:58;;;;;;;;;32.00;29.75;;;;;;;;5021075;28;45379;-72
2023/08/17 08:31:23;;;;;;;;;30.00;26.50;;;;;;;;5020949;28;45363;-72
2023/08/17 08:33:48;;;;;;;;;27.00;24.75;;;;;;;;5020954;28;45281;-73
2023/08/17 08:36:13;;;;;;;;;30.75;24.25;;;;;;;;5020121;28;47790;-72
2023/08/17 08:38:39;;;;;;;;;28.75;25.00;;;;;;;;5019207;28;45500;-72
2023/08/17 08:41:05;;;;;;;;;28.75;25.25;;;;;;;;5019562;28;45284;-72
2023/08/17 08:43:30;;;;;;;;;28.00;25.00;;;;;;;;5018336;28;45647;-73
2023/08/17 08:45:56;;;;;;;;;28.75;26.50;;;;;;;;5017894;28;45501;-73
2023/08/17 08:48:22;;;;;;;;;22.75;21.25;;;;;;;;5015987;28;45363;-72
2023/08/17 08:50:49;;;;;;;;;24.75;22.75;;;;;;;;5017332;28;45489;-73
2023/08/17 08:53:14;;;;;;;;;23.50;22.00;;;;;;;;5019965;28;45569;-74
2023/08/17 08:55:44;;;;;;;;;23.75;22.00;;;;;;;;5019938;28;45240;-73
2023/08/17 08:58:10;;;;;;;;;26.00;20.25;;;;;;;;5017952;28;45360;-73
2023/08/17 09:00:36;;;;;;;;;27.00;26.00;;;;;;;;5019975;28;45516;-73
2023/08/17 09:03:04;;;;;;;;;23.75;23.25;;;;;;;;5019613;28;45423;-73
2023/08/17 09:05:31;;;;;;;;;28.50;25.75;;;;;;;;5019252;28;46266;-73
2023/08/17 09:07:58;;;;;;;;;28.50;25.25;;;;;;;;5019762;28;45376;-74
2023/08/17 09:10:23;;;;;;;;;27.25;25.00;;;;;;;;5018353;28;45363;-73
2023/08/17 09:12:48;;;;;;;;;22.25;22.25;;;;;;;;5019839;28;45289;-73
2023/08/17 09:15:13;;;;;;;;;27.00;26.00;;;;;;;;5018749;28;46689;-72
2023/08/17 09:17:38;;;;;;;;;20.50;19.50;;;;;;;;5020290;28;45323;-73
2023/08/17 09:20:04;;;;;;;;;30.50;25.00;;;;;;;;5019922;28;45509;-73
2023/08/17 09:22:43;;;;;;;;;23.50;23.00;;;;;;;;5020167;28;45523;-72
2023/08/17 09:25:09;;;;;;;;;19.00;18.25;;;;;;;;5018593;28;46075;-73
2023/08/17 09:27:35;;;;;;;;;25.50;24.25;;;;;;;;5020232;28;45221;-73
2023/08/17 09:30:01;;;;;;;;;24.00;22.50;;;;;;;;5018192;28;45206;-72
2023/08/17 09:32:30;;;;;;;;;22.00;22.00;;;;;;;;5019383;28;45320;-73
2023/08/17 09:34:55;;;;;;;;;21.60;20.20;;;;;;;;5017066;28;46714;-73
2023/08/17 09:37:20;;;;;;;;;27.25;23.75;;;;;;;;5019559;28;45383;-73
2023/08/17 09:39:45;;;;;;;;;27.00;24.50;;;;;;;;5019713;28;45319;-73
2023/08/17 09:42:10;;;;;;;;;24.00;22.25;;;;;;;;5018658;28;45750;-72
2023/08/17 09:44:37;;;;;;;;;25.25;22.50;;;;;;;;5018828;28;47549;-73
2023/08/17 09:47:04;;;;;;;;;21.40;21.20;;;;;;;;5018244;28;45220;-72
2023/08/17 09:49:30;;;;;;;;;19.60;19.60;;;;;;;;5019409;28;45442;-72
2023/08/17 09:51:58;;;;;;;;;20.40;18.80;;;;;;;;5018308;28;45683;-73
2023/08/17 09:54:26;;;;;;;;;21.60;20.20;;;;;;;;5018140;28;47091;-72
2023/08/17 09:56:52;;;;;;;;;22.20;18.40;;;;;;;;5019723;28;45264;-73
2023/08/17 09:59:17;;;;;;;;;16.25;16.25;;;;;;;;5018600;28;45293;-73
2023/08/17 10:01:43;;;;;;;;;17.00;14.75;;;;;;;;5019628;28;45306;-73
2023/08/17 10:04:09;;;;;;;;;19.40;18.00;;;;;;;;5019296;28;46608;-72
2023/08/17 10:06:35;;;;;;;;;16.50;14.75;;;;;;;;5017716;28;45504;-73
2023/08/17 10:09:01;;;;;;;;;15.60;13.60;;;;;;;;5018258;28;45455;-73
2023/08/17 10:11:27;;;;;;;;;20.25;18.00;;;;;;;;5019451;28;45347;-73
2023/08/17 10:13:57;;;;;;;;;22.00;20.25;;;;;;;;5019298;28;46371;-73
2023/08/17 10:16:41;;;;;;;;;18.80;18.00;;;;;;;;5019367;28;45205;-73
2023/08/17 10:19:09;;;;;;;;;16.40;15.00;;;;;;;;5019537;28;45267;-72
2023/08/17 10:21:46;;;;;;;;;17.60;16.20;;;;;;;;5018966;28;45342;-73
2023/08/17 10:24:12;;;;;;;;;19.80;18.40;;;;;;;;5017895;28;47661;-73
2023/08/17 10:26:38;;;;;;;;;17.00;16.50;;;;;;;;5019044;28;45325;-73
2023/08/17 10:29:04;;;;;;;;;17.75;16.75;;;;;;;;5016586;28;45375;-72
2023/08/17 10:31:29;;;;;;;;;16.50;15.00;;;;;;;;5018537;28;45351;-74
2023/08/17 10:33:55;;;;;;;;;20.00;16.50;;;;;;;;5018585;28;45405;-73
2023/08/17 10:36:20;;;;;;;;;17.25;15.00;;;;;;;;5024300;28;45497;-73
2023/08/17 10:38:46;;;;;;;;;19.50;18.50;;;;;;;;5018446;28;45289;-73
2023/08/17 10:41:12;;;;;;;;;21.75;20.50;;;;;;;;5018484;28;45425;-72
2023/08/17 10:43:53;;;;;;;;;19.00;16.80;;;;;;;;5018105;28;45445;-73
2023/08/17 10:46:18;;;;;;;;;14.20;14.00;;;;;;;;5018598;28;45356;-73
2023/08/17 10:48:44;;;;;;;;;13.25;12.00;;;;;;;;5019123;28;45255;-73
2023/08/17 10:51:13;;;;;;;;;15.00;13.00;;;;;;;;5018532;28;45354;-73
2023/08/17 10:53:42;;;;;;;;;14.20;12.80;;;;;;;;5018960;28;46225;-73
2023/08/17 10:56:10;;;;;;;;;15.40;13.40;;;;;;;;5018917;28;45395;-73
2023/08/17 10:58:35;;;;;;;;;14.40;14.40;;;;;;;;5018929;28;45253;-73
2023/08/17 11:01:00;;;;;;;;;13.75;11.75;;;;;;;;5018965;28;45337;-74
2023/08/17 11:03:27;;;;;;;;;17.25;15.75;;;;;;;;5018553;28;46766;-73
2023/08/17 11:05:55;;;;;;;;;16.40;14.80;;;;;;;;5018352;28;45485;-72
2023/08/17 11:08:40;;;;;;;;;11.40;11.40;;;;;;;;5018449;28;45181;-73
2023/08/17 11:11:13;;;;;;;;;13.00;11.60;;;;;;;;5019020;28;45280;-72
2023/08/17 11:13:39;;;;;;;;;12.00;11.60;;;;;;;;5019641;28;45692;-73
2023/08/17 11:16:05;;;;;;;;;11.80;11.40;;;;;;;;5021676;28;45270;-73
2023/08/17 11:18:31;;;;;;;;;13.50;13.00;;;;;;;;5020229;28;45217;-73
2023/08/17 11:20:56;;;;;;;;;10.25;9.00;;;;;;;;5020769;28;45438;-73
2023/08/17 11:23:22;;;;;;;;;9.75;9.00;;;;;;;;5020041;28;46769;-73
2023/08/17 11:25:47;;;;;;;;;12.60;12.60;;;;;;;;5020062;28;46106;-73
2023/08/17 11:28:16;;;;;;;;;8.00;8.00;;;;;;;;5020101;28;45339;-72
2023/08/17 11:30:42;;;;;;;;;10.60;10.60;;;;;;;;5019883;28;46427;-73
2023/08/17 11:33:08;;;;;;;;;10.80;9.80;;;;;;;;5021718;28;46477;-72
2023/08/17 11:35:33;;;;;;;;;11.25;10.00;;;;;;;;5021561;28;45291;-73
2023/08/17 11:37:58;;;;;;;;;7.25;7.25;;;;;;;;5021688;28;46906;-72
2023/08/17 11:40:25;;;;;;;;;10.75;10.75;;;;;;;;5020310;28;46064;-73
2023/08/17 11:42:50;;;;;;;;;11.80;11.40;;;;;;;;5021400;28;45576;-72
2023/08/17 11:45:15;;;;;;;;;14.50;12.50;;;;;;;;5021440;28;45248;-73
2023/08/17 11:47:42;;;;;;;;;14.25;12.00;;;;;;;;5021657;28;45299;-73
2023/08/17 11:50:11;;;;;;;;;10.80;10.20;;;;;;;;5019988;28;46304;-74
2023/08/17 11:52:36;;;;;;;;;10.60;7.60;;;;;;;;5021196;28;45407;-75
2023/08/17 11:55:09;;;;;;;;;9.50;8.50;;;;;;;;5020948;28;45157;-73
2023/08/17 11:57:35;;;;;;;;;8.60;8.60;;;;;;;;5020682;28;45252;-73
2023/08/17 12:00:01;;;;;;;;;8.50;8.50;;;;;;;;5019758;28;46926;-73
2023/08/17 12:02:27;;;;;;;;;8.80;7.80;;;;;;;;5020817;28;45625;-73
2023/08/17 12:04:52;;;;;;;;;10.40;8.80;;;;;;;;5020576;28;45435;-74
2023/08/17 12:07:18;;;;;;;;;14.00;11.00;;;;;;;;5019574;28;45408;-74
2023/08/17 12:09:44;;;;;;;;;10.00;10.00;;;;;;;;5019164;28;45617;-73
2023/08/17 12:12:09;;;;;;;;;10.75;10.75;;;;;;;;5020054;28;46150;-74
2023/08/17 12:14:34;;;;;;;;;10.25;10.25;;;;;;;;5019294;28;45879;-76
2023/08/17 12:17:00;;;;;;;;;10.50;10.00;;;;;;;;5020839;28;45514;-75
2023/08/17 12:19:25;;;;;;;;;13.00;13.00;;;;;;;;5020394;28;45572;-74
2023/08/17 12:21:50;;;;;;;;;10.00;10.00;;;;;;;;5019894;28;45264;-75
2023/08/17 12:24:16;;;;;;;;;13.75;13.00;;;;;;;;5019863;28;45711;-75
2023/08/17 12:26:44;;;;;;;;;8.25;8.25;;;;;;;;5020994;28;45227;-73
2023/08/17 12:29:09;;;;;;;;;10.40;10.40;;;;;;;;5019733;28;45564;-74
2023/08/17 12:31:35;;;;;;;;;10.25;10.25;;;;;;;;5020697;28;45476;-75
2023/08/17 12:34:00;;;;;;;;;11.25;9.25;;;;;;;;5017473;28;45386;-74
2023/08/17 12:36:25;;;;;;;;;10.00;10.00;;;;;;;;5034443;28;45387;-73
2023/08/17 12:38:51;;;;;;;;;11.00;10.50;;;;;;;;5001050;28;45455;-74
2023/08/17 12:41:17;;;;;;;;;7.75;6.75;;;;;;;;5007891;28;45974;-75
2023/08/17 12:43:42;;;;;;;;;11.00;11.00;;;;;;;;5019381;28;45357;-75
2023/08/17 12:46:07;;;;;;;;;9.75;8.00;;;;;;;;5020573;28;45403;-75
2023/08/17 12:48:32;;;;;;;;;9.25;9.25;;;;;;;;5019475;28;45851;-75
2023/08/17 12:50:58;;;;;;;;;9.50;9.50;;;;;;;;5019875;28;45342;-74
2023/08/17 12:53:23;;;;;;;;;10.75;9.50;;;;;;;;5020778;28;45411;-75
2023/08/17 12:55:48;;;;;;;;;8.50;8.50;;;;;;;;5053339;27;45290;-76
2023/08/17 12:58:14;;;;;;;;;10.25;10.00;;;;;;;;5020162;28;45731;-74
2023/08/17 13:00:39;;;;;;;;;9.25;9.00;;;;;;;;5020277;28;46546;-74
2023/08/17 13:03:04;;;;;;;;;10.50;9.00;;;;;;;;5020192;28;45137;-78
2023/08/17 13:05:29;;;;;;;;;9.75;9.75;;;;;;;;5019962;28;45401;-73
2023/08/17 13:07:55;;;;;;;;;11.75;9.25;;;;;;;;5020306;28;45293;-74
2023/08/17 13:10:20;;;;;;;;;9.00;9.00;;;;;;;;5019896;28;45265;-74
2023/08/17 13:12:47;;;;;;;;;9.00;9.00;;;;;;;;5018747;28;45255;-74
2023/08/17 13:15:12;;;;;;;;;7.40;7.40;;;;;;;;5019866;28;45419;-74
2023/08/17 13:17:37;;;;;;;;;8.25;7.25;;;;;;;;5020021;28;45402;-73
2023/08/17 13:20:05;;;;;;;;;11.25;9.25;;;;;;;;5018848;28;46312;-72
2023/08/17 13:22:30;;;;;;;;;10.00;7.20;;;;;;;;5020136;28;45252;-72
2023/08/17 13:24:55;;;;;;;;;12.50;12.50;;;;;;;;5018767;28;45353;-72
2023/08/17 13:27:20;;;;;;;;;8.75;8.00;;;;;;;;5020116;28;45296;-73
2023/08/17 13:29:45;;;;;;;;;8.00;7.00;;;;;;;;5019854;28;45473;-73
2023/08/17 13:32:11;;;;;;;;;7.75;7.75;;;;;;;;5018559;28;45274;-73
2023/08/17 13:34:36;;;;;;;;;8.00;8.00;;;;;;;;5019627;28;45294;-72
2023/08/17 13:37:02;;;;;;;;;8.00;7.00;;;;;;;;5019794;28;45276;-73
2023/08/17 13:39:28;;;;;;;;;8.40;8.40;;;;;;;;5019899;28;45555;-72
2023/08/17 13:41:53;;;;;;;;;9.25;8.50;;;;;;;;5018791;28;45358;-73
2023/08/17 13:44:18;;;;;;;;;10.00;9.00;;;;;;;;5019939;28;45554;-72
2023/08/17 13:46:43;;;;;;;;;11.75;9.50;;;;;;;;5019882;28;45765;-72
2023/08/17 13:49:08;;;;;;;;;8.50;7.75;;;;;;;;5019500;28;45245;-73
2023/08/17 13:51:33;;;;;;;;;9.75;9.75;;;;;;;;5019853;28;45371;-74
2023/08/17 13:53:59;;;;;;;;;7.00;7.00;;;;;;;;5019764;28;45209;-72
2023/08/17 13:56:24;;;;;;;;;8.50;8.25;;;;;;;;5018469;28;46274;-72
2023/08/17 13:58:49;;;;;;;;;8.25;7.50;;;;;;;;5019412;28;45668;-71
2023/08/17 14:01:14;;;;;;;;;10.25;10.00;;;;;;;;5018448;28;45264;-72
2023/08/17 14:03:42;;;;;;;;;9.50;9.50;;;;;;;;5018324;28;45218;-72
2023/08/17 14:06:07;;;;;;;;;8.80;8.80;;;;;;;;5019261;28;45605;-72
2023/08/17 14:08:32;;;;;;;;;9.00;7.50;;;;;;;;5019413;28;45702;-72
2023/08/17 14:10:58;;;;;;;;;7.00;7.00;;;;;;;;5019318;28;45327;-71
2023/08/17 14:13:23;;;;;;;;;8.25;8.00;;;;;;;;5019390;28;45328;-72
2023/08/17 14:15:48;;;;;;;;;9.00;8.00;;;;;;;;5019476;28;45277;-73
2023/08/17 14:18:13;;;;;;;;;10.25;8.50;;;;;;;;5018935;28;45524;-72
2023/08/17 14:20:38;;;;;;;;;8.25;8.25;;;;;;;;5019088;28;45286;-72
2023/08/17 14:23:03;;;;;;;;;8.25;7.50;;;;;;;;5019436;28;45253;-72
2023/08/17 14:25:29;;;;;;;;;10.00;9.75;;;;;;;;5019449;28;45439;-72
2023/08/17 14:27:54;;;;;;;;;8.00;6.25;;;;;;;;5019178;28;45606;-72
2023/08/17 14:30:19;;;;;;;;;10.25;8.00;;;;;;;;5019274;28;45335;-72
2023/08/17 14:32:44;;;;;;;;;9.50;9.00;;;;;;;;5019343;28;45752;-71
2023/08/17 14:35:10;;;;;;;;;9.00;8.75;;;;;;;;5018988;28;45502;-72
2023/08/17 14:37:35;;;;;;;;;9.25;9.25;;;;;;;;5019133;28;45620;-71
2023/08/17 14:40:00;;;;;;;;;7.50;7.50;;;;;;;;5019313;28;45284;-72
2023/08/17 14:42:26;;;;;;;;;11.00;10.50;;;;;;;;5019203;28;45388;-72
2023/08/17 14:44:51;;;;;;;;;7.00;7.00;;;;;;;;5019846;28;45304;-72
2023/08/17 14:47:17;;;;;;;;;9.25;8.00;;;;;;;;5022612;28;46644;-72
2023/08/17 14:49:42;;;;;;;;;9.75;8.25;;;;;;;;5021324;28;45559;-72
2023/08/17 14:52:07;;;;;;;;;9.00;9.00;;;;;;;;5022902;28;45260;-72
2023/08/17 14:54:32;;;;;;;;;10.75;10.75;;;;;;;;5022605;28;45313;-73
2023/08/17 14:56:57;;;;;;;;;8.00;8.00;;;;;;;;5022457;28;46820;-72
2023/08/17 14:59:23;;;;;;;;;11.50;10.50;;;;;;;;5022250;28;45201;-72
2023/08/17 15:01:49;;;;;;;;;9.75;9.00;;;;;;;;5021228;28;45239;-71
2023/08/17 15:04:14;;;;;;;;;9.00;8.40;;;;;;;;5022098;28;45494;-71
2023/08/17 15:06:39;;;;;;;;;7.25;7.25;;;;;;;;5022142;28;46298;-72
2023/08/17 15:09:04;;;;;;;;;10.50;9.25;;;;;;;;5022452;28;45505;-72
2023/08/17 15:11:30;;;;;;;;;8.25;8.25;;;;;;;;5022444;28;45279;-71
2023/08/17 15:13:55;;;;;;;;;9.50;9.00;;;;;;;;5022215;28;45205;-71
2023/08/17 15:16:25;;;;;;;;;7.00;7.00;;;;;;;;5022327;28;46454;-72
2023/08/17 15:18:50;;;;;;;;;9.00;9.00;;;;;;;;5022135;28;45374;-71
2023/08/17 15:21:15;;;;;;;;;8.25;8.25;;;;;;;;5021984;28;45453;-73
2023/08/17 15:23:41;;;;;;;;;10.00;9.00;;;;;;;;5019577;28;45592;-72
2023/08/17 15:26:06;;;;;;;;;10.75;9.00;;;;;;;;5021486;28;46469;-72
2023/08/17 15:28:31;;;;;;;;;9.75;8.50;;;;;;;;5021042;28;45430;-72
2023/08/17 15:31:01;;;;;;;;;6.00;6.00;;;;;;;;5020454;28;45408;-72
2023/08/17 15:33:27;;;;;;;;;9.20;8.20;;;;;;;;5021825;28;45554;-72
2023/08/17 15:35:52;;;;;;;;;9.00;9.00;;;;;;;;5021020;28;45550;-71
2023/08/17 15:38:17;;;;;;;;;9.25;8.50;;;;;;;;5020546;28;45642;-71
2023/08/17 15:40:43;;;;;;;;;10.00;8.75;;;;;;;;5020406;28;45336;-71
2023/08/17 15:43:08;;;;;;;;;9.75;9.75;;;;;;;;5021699;28;45300;-71
2023/08/17 15:45:33;;;;;;;;;7.50;7.50;;;;;;;;5021677;28;45553;-72
2023/08/17 15:47:59;;;;;;;;;8.25;8.25;;;;;;;;5020959;28;45323;-72
2023/08/17 15:50:24;;;;;;;;;8.50;8.00;;;;;;;;5021616;28;45423;-71
2023/08/17 15:52:49;;;;;;;;;11.25;10.00;;;;;;;;5019772;28;46512;-71
2023/08/17 15:55:14;;;;;;;;;9.75;9.75;;;;;;;;5021436;28;45504;-71
2023/08/17 15:57:39;;;;;;;;;12.00;11.00;;;;;;;;5019479;28;45355;-71
2023/08/17 16:00:05;;;;;;;;;10.50;9.00;;;;;;;;5021491;28;45361;-72
2023/08/17 16:02:30;;;;;;;;;10.00;9.50;;;;;;;;5021013;28;45559;-71
2023/08/17 16:04:55;;;;;;;;;11.25;11.25;;;;;;;;5020731;28;45384;-72
2023/08/17 16:07:21;;;;;;;;;11.75;10.00;;;;;;;;5021107;28;45339;-72
2023/08/17 16:09:46;;;;;;;;;8.75;8.75;;;;;;;;5021121;28;45577;-71
2023/08/17 16:12:11;;;;;;;;;9.25;8.00;;;;;;;;5020131;28;45313;-74
2023/08/17 16:14:36;;;;;;;;;10.50;8.75;;;;;;;;5020488;28;45600;-73
2023/08/17 16:17:01;;;;;;;;;13.00;11.00;;;;;;;;5019990;28;45304;-74
2023/08/17 16:19:26;;;;;;;;;10.00;8.75;;;;;;;;5019514;28;45493;-74
2023/08/17 16:21:52;;;;;;;;;11.25;8.50;;;;;;;;5020023;28;45446;-75
2023/08/17 16:24:17;;;;;;;;;11.50;10.75;;;;;;;;5020157;28;46099;-74
2023/08/17 16:26:42;;;;;;;;;10.75;9.75;;;;;;;;5018947;28;45483;-75
2023/08/17 16:29:07;;;;;;;;;9.75;9.75;;;;;;;;5023336;28;45351;-76
2023/08/17 16:31:33;;;;;;;;;12.00;10.25;;;;;;;;5022492;28;45537;-73
2023/08/17 16:33:59;;;;;;;;;12.00;11.80;;;;;;;;5020716;28;45531;-73
2023/08/17 16:36:24;;;;;;;;;10.50;9.00;;;;;;;;5020473;28;45225;-73
2023/08/17 16:38:49;;;;;;;;;10.00;8.50;;;;;;;;5020012;28;45561;-73
2023/08/17 16:41:14;;;;;;;;;11.00;11.00;;;;;;;;5019290;28;46036;-73
2023/08/17 16:43:39;;;;;;;;;9.75;9.75;;;;;;;;5019063;28;47174;-73
2023/08/17 16:46:04;;;;;;;;;11.50;11.50;;;;;;;;5020462;28;45410;-73
2023/08/17 16:48:30;;;;;;;;;10.50;10.50;;;;;;;;5019300;28;45472;-73
2023/08/17 16:50:55;;;;;;;;;14.75;14.75;;;;;;;;5019828;28;45242;-73
2023/08/17 16:53:20;;;;;;;;;10.00;9.00;;;;;;;;5018668;28;48045;-73
2023/08/17 16:55:47;;;;;;;;;8.25;6.75;;;;;;;;5020457;28;45256;-73
2023/08/17 16:58:12;;;;;;;;;11.20;11.20;;;;;;;;5020362;28;45430;-73
2023/08/17 17:00:37;;;;;;;;;11.50;11.50;;;;;;;;5018508;28;45509;-73
2023/08/17 17:03:02;;;;;;;;;13.75;12.00;;;;;;;;5019170;28;46739;-74
2023/08/17 17:08:03;;;;;;;;;11.20;9.60;;;;;;;;5260615;22;45430;-70
2023/08/17 17:10:28;;;;;;;;;9.50;9.50;;;;;;;;5005376;28;45422;-72
2023/08/17 17:12:54;;;;;;;;;10.25;10.00;;;;;;;;5005920;28;46327;-70
2023/08/17 17:15:19;;;;;;;;;10.25;9.25;;;;;;;;5010586;28;45262;-70
2023/08/17 17:17:45;;;;;;;;;8.00;8.00;;;;;;;;5013631;28;46608;-70
2023/08/17 17:20:10;;;;;;;;;11.00;10.00;;;;;;;;5012352;28;45641;-71
2023/08/17 17:22:36;;;;;;;;;8.00;8.00;;;;;;;;5010339;28;46003;-70
2023/08/17 17:25:03;;;;;;;;;9.75;8.50;;;;;;;;5006121;28;45449;-70
2023/08/17 17:27:28;;;;;;;;;9.00;9.00;;;;;;;;5009165;28;45454;-70
2023/08/17 17:29:54;;;;;;;;;11.00;9.75;;;;;;;;5002833;28;45362;-70
2023/08/17 17:32:19;;;;;;;;;11.75;9.25;;;;;;;;5009587;28;45505;-70
2023/08/17 17:34:44;;;;;;;;;9.75;9.75;;;;;;;;5001162;28;45753;-70
2023/08/17 17:37:09;;;;;;;;;12.00;7.00;;;;;;;;5012460;28;45270;-71
2023/08/17 17:39:34;;;;;;;;;11.75;8.50;;;;;;;;5001414;28;45300;-71
2023/08/17 17:41:59;;;;;;;;;11.25;11.25;;;;;;;;5010791;28;45519;-71
2023/08/17 17:44:25;;;;;;;;;10.75;10.75;;;;;;;;5016967;28;45478;-70
2023/08/17 17:46:50;;;;;;;;;20.00;17.75;;;;;;;;5016150;28;45319;-70
2023/08/17 17:49:15;;;;;;;;;13.75;11.25;;;;;;;;5017934;28;45347;-70
2023/08/17 17:51:40;;;;;;;;;12.00;11.75;;;;;;;;5015745;28;45308;-70
2023/08/17 17:54:06;;;;;;;;;10.50;10.50;;;;;;;;5019000;28;45443;-70
2023/08/17 17:56:41;;;;;;;;;11.00;9.25;;;;;;;;5017749;28;45405;-70
2023/08/17 17:59:07;;;;;;;;;11.40;11.40;;;;;;;;5014911;28;45423;-70
2023/08/17 18:01:32;;;;;;;;;10.00;10.00;;;;;;;;5017445;28;46001;-71
2023/08/17 18:03:58;;;;;;;;;11.00;11.00;;;;;;;;5017720;28;45271;-71
2023/08/17 18:06:23;;;;;;;;;13.25;12.75;;;;;;;;5017871;28;45410;-71
2023/08/17 18:08:48;;;;;;;;;11.25;11.25;;;;;;;;5008472;28;45510;-70
2023/08/17 18:11:13;;;;;;;;;13.00;12.25;;;;;;;;5017893;28;45410;-70
2023/08/17 18:13:39;;;;;;;;;13.50;12.50;;;;;;;;5017586;28;45722;-70
2023/08/17 18:16:04;;;;;;;;;11.25;11.25;;;;;;;;5018437;28;45221;-70
2023/08/17 18:18:32;;;;;;;;;13.00;11.50;;;;;;;;5015913;28;45279;-70
2023/08/17 18:20:57;;;;;;;;;14.20;12.60;;;;;;;;5015879;28;47228;-70